Главная страница
METAR-TAF:

METAR-TAF

Аэропорты :

Гаррисберг, Пенсильвания, США

широта: 40-13-02N, долгота: 076-51-05W, высота над уровнем моря: 106 м

Текущие метеонаблюдения

Эта сводка был подготовлена 36 минут назад, в 23:56 UTC
Ветер 3 Узел от западный
Температура 23°C
Влажность 53%
Давление 1017 hPa
Видимость: 16.1 км
ясное небо

METAR: KCXY 232356Z 27003KT 10SM CLR 23/13 A3004 RMK AO2 SLP173 T02330128 10267 20233 53004

Время: 20:32 (00:32 UTC)


TAF: отсутствует

Метеонаблюдения и прогнозы для более 4000 аэропортов (сводки METAR и TAF).

Имеющиеся станции представлены на карте желтыми и красными точками.

Чтобы увидеть название станции, наведите на нее мышь.

Затем щелкните, чтобы увидеть метеонаблюдения и метеопрогнозы.

Управление картой: чтобы увеличить масштаб, щелкните зеленые кнопки с черным крестиком; чтобы уменьшить масштаб, щелкните зеленую кнопку с тире; для просмотра соседних карт щелкайте зеленые стрелки.


METAR-TAF: